Niles, Illinois
Current Conditions -  °F | °C
As of 6:51 PM on Saturday 22 Nov 2014 (Local Time) from KORD Reporting Station
Overcast Overcast  
Wind Chill: 11°   Ceiling: 5000
Heat Index: 11°   Visibility: 10mi
Dew Point:   Wind: 15mph
Humidity: 77%   Direction: 210°SSW
Pressure: 29.86"   Gusts: 24mph
Location:  42.02°N, 87.8°W
Report Text: KORD 230051Z 21013G21KT 10SM FEW021 OVC050 11/07 A2986 RMK AO2 SLP113 T01110072
Loading
Personal Weather Stations






























Interactive Weather Map New forecast layout! Learn more

10-Day Weather Forecast

Advertisements
Track Severe Weather on mobile